createdAt,value
2022-09-04T00:00:28.553Z,18.17
2022-09-04T00:03:38.883Z,19.00
2022-09-04T00:06:54.671Z,19.13
2022-09-04T00:10:02.400Z,18.08
2022-09-04T00:13:27.559Z,17.65
2022-09-04T00:16:51.253Z,17.65
2022-09-04T00:19:58.668Z,16.97
2022-09-04T00:23:13.752Z,17.10
2022-09-04T00:26:36.999Z,17.02
2022-09-04T00:29:59.837Z,18.00
2022-09-04T00:33:18.141Z,19.15
2022-09-04T00:36:23.950Z,18.42
2022-09-04T00:39:38.380Z,19.23
2022-09-04T00:42:52.298Z,18.95
2022-09-04T00:46:19.310Z,19.27
2022-09-04T00:50:03.808Z,20.35
2022-09-04T00:53:30.576Z,19.00
2022-09-04T00:57:04.761Z,19.08
2022-09-04T01:00:12.661Z,19.20
2022-09-04T01:03:38.442Z,19.80
2022-09-04T01:07:09.359Z,19.52
2022-09-04T01:10:17.183Z,18.90
2022-09-04T01:13:41.678Z,17.90
2022-09-04T01:16:50.924Z,18.13
2022-09-04T01:20:09.672Z,19.85
2022-09-04T01:23:49.212Z,18.98
2022-09-04T01:27:08.990Z,19.10
2022-09-04T01:30:19.742Z,19.05
2022-09-04T01:33:36.863Z,18.33
2022-09-04T01:36:45.541Z,19.48
2022-09-04T01:39:59.153Z,18.38
2022-09-04T01:43:15.826Z,18.63
2022-09-04T01:46:23.853Z,21.45
2022-09-04T01:49:40.787Z,20.10
2022-09-04T01:52:56.950Z,19.38
2022-09-04T01:56:17.702Z,20.83
2022-09-04T01:59:53.710Z,19.55
2022-09-04T02:03:16.225Z,19.30
2022-09-04T02:06:47.566Z,21.13
2022-09-04T02:09:49.527Z,20.48
2022-09-04T02:13:14.057Z,19.15
2022-09-04T02:16:28.748Z,20.02
2022-09-04T02:20:22.343Z,20.33
2022-09-04T02:23:50.486Z,21.67
2022-09-04T02:27:07.093Z,22.25
2022-09-04T02:30:11.909Z,23.23
2022-09-04T02:33:46.914Z,23.15
2022-09-04T02:37:03.369Z,23.67
2022-09-04T02:40:14.238Z,22.33
2022-09-04T02:43:37.445Z,23.80
2022-09-04T02:47:05.497Z,23.80
2022-09-04T02:50:32.736Z,22.63
2022-09-04T02:53:54.757Z,22.73
2022-09-04T02:57:16.097Z,24.08
2022-09-04T03:00:21.257Z,24.42
2022-09-04T03:03:39.641Z,23.52
2022-09-04T03:06:49.384Z,24.67
2022-09-04T03:10:04.639Z,24.33
2022-09-04T03:13:06.604Z,23.23
2022-09-04T03:16:32.678Z,24.55
2022-09-04T03:19:51.123Z,24.10
2022-09-04T03:23:13.578Z,23.50
2022-09-04T03:26:28.359Z,28.35
2022-09-04T03:29:46.135Z,24.77
2022-09-04T03:33:02.339Z,27.05
2022-09-04T03:36:22.776Z,28.63
2022-09-04T03:39:43.659Z,27.90
2022-09-04T03:43:22.245Z,28.38
2022-09-04T03:46:37.618Z,28.27
2022-09-04T03:49:57.499Z,29.35
2022-09-04T03:53:40.666Z,28.52
2022-09-04T03:56:55.708Z,28.05
2022-09-04T04:00:03.527Z,27.77
2022-09-04T04:03:23.179Z,28.90
2022-09-04T04:06:40.536Z,29.48
2022-09-04T04:10:03.325Z,29.25
2022-09-04T04:13:44.438Z,28.42
2022-09-04T04:17:23.646Z,30.08
2022-09-04T04:20:37.821Z,30.13
2022-09-04T04:23:58.601Z,30.13
2022-09-04T04:27:40.753Z,31.05
2022-09-04T04:30:48.166Z,32.42
2022-09-04T04:34:02.650Z,33.25
2022-09-04T04:37:15.524Z,31.20
2022-09-04T04:40:45.360Z,31.10
2022-09-04T04:43:54.719Z,32.40
2022-09-04T04:47:17.247Z,32.90
2022-09-04T04:50:31.639Z,33.25
2022-09-04T05:00:11.386Z,32.92
2022-09-04T05:03:37.569Z,33.60
2022-09-04T05:06:54.707Z,35.22
2022-09-04T05:10:03.029Z,34.38
2022-09-04T05:13:25.504Z,36.28
2022-09-04T05:16:35.836Z,33.65
2022-09-04T05:20:14.677Z,34.78
2022-09-04T05:23:50.530Z,35.65
2022-09-04T05:27:03.586Z,35.58
2022-09-04T05:30:16.777Z,35.22
2022-09-04T05:33:45.775Z,33.30
2022-09-04T05:37:16.896Z,32.83
2022-09-04T05:40:33.517Z,34.78
2022-09-04T05:44:04.837Z,31.60
2022-09-04T05:47:34.698Z,33.47
2022-09-04T05:50:39.473Z,33.60
2022-09-04T05:54:01.076Z,34.45
2022-09-04T05:57:24.294Z,33.53
2022-09-04T06:00:37.384Z,32.78
2022-09-04T06:04:01.343Z,32.42
2022-09-04T06:07:19.565Z,33.03
2022-09-04T06:10:30.364Z,32.58
2022-09-04T06:14:02.559Z,32.00
2022-09-04T06:17:36.389Z,31.77
2022-09-04T06:20:41.397Z,30.98
2022-09-04T06:23:48.779Z,31.40
2022-09-04T06:27:17.155Z,29.60
2022-09-04T06:30:19.402Z,30.58
2022-09-04T06:33:47.539Z,28.50
2022-09-04T06:37:17.480Z,28.27
2022-09-04T06:40:57.864Z,28.75
2022-09-04T06:44:22.952Z,28.70
2022-09-04T06:47:39.473Z,27.73
2022-09-04T06:51:00.845Z,27.85
2022-09-04T06:54:14.265Z,25.42
2022-09-04T06:57:42.809Z,24.83
2022-09-04T07:01:09.731Z,25.45
2022-09-04T07:04:33.005Z,26.55
2022-09-04T07:07:52.608Z,22.92
2022-09-04T07:11:23.590Z,20.77
2022-09-04T07:15:16.129Z,18.05
2022-09-04T07:18:55.766Z,17.38
2022-09-04T07:22:28.565Z,17.35
2022-09-04T07:25:45.047Z,17.60
2022-09-04T07:29:11.149Z,16.55
2022-09-04T07:32:18.318Z,16.25
2022-09-04T07:35:35.132Z,17.58
2022-09-04T07:38:50.575Z,16.27
2022-09-04T07:42:09.760Z,16.40
2022-09-04T07:45:21.935Z,17.50
2022-09-04T07:48:32.178Z,17.25
2022-09-04T07:51:41.371Z,17.35
2022-09-04T07:54:57.672Z,16.50
2022-09-04T07:58:32.309Z,17.45
2022-09-04T08:01:55.626Z,17.48
2022-09-04T08:05:12.723Z,17.75
2022-09-04T08:08:14.698Z,19.83
2022-09-04T08:11:41.354Z,18.30
2022-09-04T08:14:54.033Z,17.95
2022-09-04T08:18:13.054Z,19.07
2022-09-04T08:21:28.490Z,17.63
2022-09-04T08:24:30.470Z,17.50
2022-09-04T08:28:09.618Z,16.67
2022-09-04T08:31:31.702Z,19.38
2022-09-04T08:34:51.788Z,19.73
2022-09-04T08:38:18.287Z,21.52
2022-09-04T08:41:38.870Z,20.58
2022-09-04T08:45:23.566Z,22.52
2022-09-04T08:48:46.093Z,19.20
2022-09-04T08:52:19.185Z,21.67
2022-09-04T08:55:42.165Z,21.77
2022-09-04T08:59:12.599Z,16.98
2022-09-04T09:02:55.976Z,20.05
2022-09-04T09:06:09.835Z,21.55
2022-09-04T09:09:41.446Z,23.30
2022-09-04T09:13:29.902Z,23.67
2022-09-04T09:16:34.788Z,22.77
2022-09-04T09:19:47.168Z,21.90
2022-09-04T09:23:17.883Z,22.88
2022-09-04T09:26:24.419Z,22.15
2022-09-04T09:29:52.268Z,21.45
2022-09-04T09:33:49.251Z,24.05
2022-09-04T09:37:13.624Z,21.05
2022-09-04T09:40:36.174Z,24.70
2022-09-04T09:44:11.480Z,27.35
2022-09-04T09:47:35.900Z,25.63
2022-09-04T09:54:31.921Z,24.83
2022-09-04T09:57:34.160Z,22.55
2022-09-04T10:00:47.373Z,22.83
2022-09-04T10:04:01.503Z,24.20
2022-09-04T10:07:12.764Z,23.42
2022-09-04T10:10:40.585Z,20.58
2022-09-04T10:14:09.770Z,21.95
2022-09-04T10:17:30.100Z,19.65
2022-09-04T10:20:50.858Z,20.20
2022-09-04T10:24:17.020Z,18.08
2022-09-04T10:27:52.421Z,18.73
2022-09-04T10:31:30.587Z,17.83
2022-09-04T10:34:40.682Z,19.52
2022-09-04T10:38:19.514Z,17.88
2022-09-04T10:41:56.275Z,16.67
2022-09-04T10:45:21.665Z,18.02
2022-09-04T10:48:39.825Z,14.77
2022-09-04T10:51:54.843Z,18.10
2022-09-04T10:55:40.248Z,16.98
2022-09-04T10:58:54.057Z,14.50
2022-09-04T11:02:27.041Z,13.65
2022-09-04T11:05:55.842Z,15.38
2022-09-04T11:09:20.156Z,15.02
2022-09-04T11:12:34.232Z,16.15
2022-09-04T11:15:50.837Z,15.65
2022-09-04T11:19:15.625Z,12.60
2022-09-04T11:23:04.315Z,11.75
2022-09-04T11:26:21.580Z,12.63
2022-09-04T11:29:45.500Z,15.27
2022-09-04T11:33:32.171Z,11.75
2022-09-04T11:36:46.236Z,10.48
2022-09-04T11:40:11.857Z,11.02
2022-09-04T11:43:35.195Z,11.07
2022-09-04T11:47:03.607Z,8.75
2022-09-04T11:50:13.784Z,9.07
2022-09-04T11:53:36.462Z,9.35
2022-09-04T11:56:49.483Z,9.65
2022-09-04T12:00:08.405Z,8.20
2022-09-04T12:03:46.241Z,9.73
2022-09-04T12:07:42.570Z,8.90
2022-09-04T12:11:03.635Z,9.65
2022-09-04T12:14:30.263Z,8.30
2022-09-04T12:17:51.001Z,9.57
2022-09-04T12:21:18.938Z,10.18
2022-09-04T12:24:44.308Z,15.55
2022-09-04T12:28:20.297Z,11.32
2022-09-04T12:31:34.732Z,13.25
2022-09-04T12:35:10.610Z,13.55
2022-09-04T12:38:31.088Z,11.18
2022-09-04T12:41:54.595Z,11.52
2022-09-04T12:48:37.176Z,9.50
2022-09-04T12:52:08.054Z,8.75
2022-09-04T12:55:33.399Z,8.60
2022-09-04T12:59:04.290Z,7.80
2022-09-04T13:02:27.435Z,8.38
2022-09-04T13:05:41.876Z,7.13
2022-09-04T13:09:04.127Z,7.68
2022-09-04T13:12:18.098Z,7.13
2022-09-04T13:15:58.428Z,7.05
2022-09-04T13:19:06.263Z,6.70
2022-09-04T13:22:37.332Z,7.60
2022-09-04T13:25:51.200Z,7.97
2022-09-04T13:29:15.347Z,5.95
2022-09-04T13:32:54.914Z,4.32
2022-09-04T13:36:05.845Z,5.13
2022-09-04T13:39:35.086Z,4.85
2022-09-04T13:42:52.507Z,6.25
2022-09-04T13:45:59.998Z,5.93
2022-09-04T13:49:07.050Z,6.60
2022-09-04T13:52:16.552Z,6.88
2022-09-04T13:55:23.201Z,8.00
2022-09-04T13:58:34.492Z,8.85
2022-09-04T14:01:42.322Z,7.10
2022-09-04T14:04:48.643Z,8.30
2022-09-04T14:08:02.369Z,7.60
2022-09-04T14:11:48.954Z,7.45
2022-09-04T14:15:06.276Z,6.00
2022-09-04T14:18:26.097Z,6.68
2022-09-04T14:21:44.361Z,5.47
2022-09-04T14:25:16.950Z,6.90
2022-09-04T14:28:57.756Z,7.25
2022-09-04T14:32:16.542Z,6.15
2022-09-04T14:35:35.786Z,5.10
2022-09-04T14:38:55.676Z,5.18
2022-09-04T14:42:32.191Z,5.53
2022-09-04T14:46:09.282Z,4.72
2022-09-04T14:49:16.803Z,4.30
2022-09-04T14:52:33.724Z,3.63
2022-09-04T14:56:01.302Z,3.70
2022-09-04T14:59:28.735Z,3.67
2022-09-04T15:02:40.959Z,4.05
2022-09-04T15:05:48.387Z,3.42
2022-09-04T15:08:50.836Z,3.10
2022-09-04T15:12:08.923Z,3.20
2022-09-04T15:15:30.081Z,3.13
2022-09-04T15:18:50.923Z,3.35
2022-09-04T15:22:05.044Z,2.85
2022-09-04T15:25:20.084Z,3.00
2022-09-04T15:28:33.908Z,3.30
2022-09-04T15:31:38.530Z,3.20
2022-09-04T15:34:40.968Z,3.08
2022-09-04T15:37:48.258Z,3.37
2022-09-04T15:41:17.745Z,3.63
2022-09-04T15:44:29.948Z,3.38
2022-09-04T15:47:56.750Z,3.70
2022-09-04T15:51:13.652Z,3.38
2022-09-04T15:54:18.380Z,3.15
2022-09-04T15:57:39.593Z,3.28
2022-09-04T16:01:01.740Z,3.33
2022-09-04T16:04:30.308Z,3.10
2022-09-04T16:07:42.212Z,3.00
2022-09-04T16:11:00.987Z,3.03
2022-09-04T16:14:08.005Z,3.00
2022-09-04T16:17:19.703Z,3.17
2022-09-04T16:20:33.553Z,3.15
2022-09-04T16:23:38.238Z,3.17
2022-09-04T16:26:40.275Z,3.75
2022-09-04T16:30:02.011Z,3.33
2022-09-04T16:33:20.550Z,3.17
2022-09-04T16:36:38.061Z,2.90
2022-09-04T16:39:58.940Z,2.47
2022-09-04T16:43:28.627Z,2.20
2022-09-04T16:46:34.630Z,1.50
2022-09-04T16:49:59.154Z,1.60
2022-09-04T16:53:17.827Z,1.60
2022-09-04T16:56:28.274Z,1.65
2022-09-04T16:59:53.926Z,1.48
2022-09-04T17:03:04.530Z,1.65
2022-09-04T17:06:18.130Z,1.50
2022-09-04T17:09:34.016Z,1.77
2022-09-04T17:12:44.914Z,1.48
2022-09-04T17:15:55.309Z,1.70
2022-09-04T17:18:57.573Z,1.30
2022-09-04T17:28:57.069Z,1.50
2022-09-04T17:29:10.105Z,1.50
2022-09-04T17:29:34.322Z,1.65
2022-09-04T17:36:11.133Z,1.60
2022-09-04T17:40:35.700Z,1.67
2022-09-04T17:40:49.542Z,1.60
2022-09-04T17:43:57.355Z,1.70
2022-09-04T17:47:19.470Z,1.52
2022-09-04T17:50:22.351Z,2.05
2022-09-04T17:53:34.339Z,1.80
2022-09-04T17:57:14.228Z,1.88
2022-09-04T18:00:28.013Z,1.77
2022-09-04T18:03:57.450Z,1.75
2022-09-04T18:08:08.409Z,1.85
2022-09-04T18:10:57.052Z,1.67
2022-09-04T18:14:09.062Z,1.98
2022-09-04T18:17:24.973Z,1.90
2022-09-04T18:20:43.224Z,2.15
2022-09-04T18:23:54.873Z,1.95
2022-09-04T18:27:14.934Z,1.95
2022-09-04T18:37:00.767Z,2.00
2022-09-04T18:37:26.027Z,1.40
2022-09-04T18:37:45.192Z,1.83
2022-09-04T18:43:59.466Z,1.80
2022-09-04T18:50:32.156Z,1.95
2022-09-04T18:50:39.226Z,1.60
2022-09-04T18:51:24.824Z,1.85
2022-09-04T18:54:39.035Z,1.90
2022-09-04T18:57:54.696Z,1.80
2022-09-04T19:01:11.821Z,1.75
2022-09-04T19:04:26.137Z,2.20
2022-09-04T19:10:46.582Z,2.10
2022-09-04T19:14:10.414Z,2.15
2022-09-04T19:17:51.330Z,2.30
2022-09-04T19:21:09.989Z,2.17
2022-09-04T19:24:36.056Z,11.65
2022-09-04T19:27:45.601Z,5.90
2022-09-04T19:30:57.719Z,2.72
2022-09-04T19:34:10.953Z,2.53
2022-09-04T19:39:19.548Z,1.95
2022-09-04T19:46:11.847Z,2.08
2022-09-04T19:48:51.035Z,2.10
2022-09-04T19:53:36.107Z,2.45
2022-09-04T19:55:51.707Z,2.00
2022-09-04T19:59:16.401Z,2.40
2022-09-04T20:02:18.791Z,2.30
2022-09-04T20:05:27.623Z,2.65
2022-09-04T20:08:51.498Z,2.65
2022-09-04T20:12:40.433Z,2.28
2022-09-04T20:16:00.885Z,2.40
2022-09-04T20:19:07.031Z,2.72
2022-09-04T20:22:30.616Z,2.78
2022-09-04T20:25:45.200Z,3.30
2022-09-04T20:28:59.594Z,2.97
2022-09-04T20:32:11.936Z,3.15
2022-09-04T20:35:33.238Z,2.75
2022-09-04T20:39:00.029Z,3.17
2022-09-04T20:42:18.089Z,3.20
2022-09-04T20:47:46.279Z,3.45
2022-09-04T20:52:53.306Z,3.67
2022-09-04T20:56:04.394Z,3.80
2022-09-04T21:03:11.237Z,4.00
2022-09-04T21:03:28.058Z,4.10
2022-09-04T21:06:38.557Z,4.40
2022-09-04T21:09:55.463Z,3.97
2022-09-04T21:13:13.978Z,4.13
2022-09-04T21:16:43.667Z,4.20
2022-09-04T21:20:02.704Z,4.18
2022-09-04T21:23:17.089Z,4.15
2022-09-04T21:30:05.319Z,4.10
2022-09-04T21:33:27.898Z,4.23
2022-09-04T21:36:38.551Z,4.60
2022-09-04T21:39:56.273Z,4.47
2022-09-04T21:43:09.651Z,4.75
2022-09-04T21:46:39.490Z,4.75
2022-09-04T21:49:42.516Z,5.22
2022-09-04T21:53:16.395Z,5.30
2022-09-04T22:02:27.766Z,5.90
2022-09-04T22:02:40.790Z,5.63
2022-09-04T22:03:55.895Z,5.88
2022-09-04T22:13:26.391Z,5.68
2022-09-04T22:13:42.850Z,6.50
2022-09-04T22:14:51.771Z,6.05
2022-09-04T22:18:26.488Z,5.55
2022-09-04T22:22:09.940Z,6.35
2022-09-04T22:25:30.709Z,6.10
2022-09-04T22:28:50.435Z,6.38
2022-09-04T22:32:05.942Z,6.30
2022-09-04T22:35:50.726Z,6.10
2022-09-04T22:39:31.796Z,5.72
2022-09-04T22:42:52.109Z,5.60
2022-09-04T22:46:30.720Z,5.45
2022-09-04T22:49:47.532Z,5.70
2022-09-04T22:53:14.125Z,6.40
2022-09-04T22:56:28.993Z,5.97
2022-09-04T22:59:49.138Z,5.60
2022-09-04T23:03:10.953Z,5.97
2022-09-04T23:09:34.193Z,6.10
2022-09-04T23:13:48.349Z,6.10
2022-09-04T23:14:06.822Z,6.68
2022-09-04T23:17:24.524Z,6.00
2022-09-04T23:26:32.966Z,6.72
2022-09-04T23:26:43.936Z,6.53
2022-09-04T23:28:27.602Z,6.95
2022-09-04T23:31:56.099Z,6.85
2022-09-04T23:35:32.447Z,7.15
2022-09-04T23:38:56.364Z,7.05
2022-09-04T23:42:19.724Z,7.07
2022-09-04T23:45:27.440Z,7.00
2022-09-04T23:49:06.731Z,7.32
2022-09-04T23:52:28.472Z,7.22
2022-09-04T23:55:50.026Z,8.35
2022-09-04T23:59:12.601Z,7.50
